• Join FlightAware (Why Join?)
  • Login
  • US Flag 
07:18AM EDT


 

Airport Tracker/Info


-or-


 

Live Flight TrackerFlight Track Log ✈ N242SR ✈ 10-Jul-2013 ✈ KBED - KHPN

Flight Track Log - Related Links

Times and Time Zones

All times are in EDT time to prevent confusion due to time zone crossing. See the N242SR flight status page for this flight to view local times or setup timezone preferences in your user account.

Time Position Orientation Groundspeed Altitude Reporting Facility
EDT Latitude Longitude Course Direction KTS MPH feet Rate Location/Type
12:57PM 42.4500 -71.3000 216° Southwest 149 171 900  Level KA90
12:57PM 42.4333 -71.3167 216° Southwest 114 131 1,400 840 Climbing KA90
12:58PM 42.4000 -71.3500 216° Southwest 128 147 2,300 780 Climbing KA90
12:59PM 42.3833 -71.3667 216° Southwest 127 146 3,100 360 Climbing KA90
01:00PM 42.3500 -71.4167 228° Southwest 152 175 3,100 420 Level KA90
01:01PM 42.3167 -71.4333 200° South 125 144 4,100 420 Climbing KA90
01:02PM 42.2833 -71.4667 216° Southwest 152 175 4,100 120 Level KA90
01:03PM 42.2508 -71.5089 224° Southwest 151 174 4,400 540 Climbing Boston Center
01:05PM 42.2261 -71.5653 239° Southwest 126 145 5,400 720 Climbing Boston Center
01:06PM 42.2097 -71.6019 239° Southwest 118 136 6,100 360 Climbing Boston Center
01:07PM 42.1956 -71.6469 247° West 132 152 6,100  Level Boston Center
01:08PM 42.1833 -71.7033 254° West 149 171 6,100  Level Boston Center
01:09PM 42.1711 -71.7594 254° West 146 168 6,100  Level Boston Center
01:10PM 42.1589 -71.8072 251° West 147 169 6,100  Level Boston Center
01:11PM 42.1467 -71.8519 250° West 144 166 6,100  Level Boston Center
01:12PM 42.1325 -71.9108 252° West 145 167 6,100  Level Boston Center
01:13PM 42.1222 -71.9558 253° West 144 166 6,100  Level Boston Center
01:14PM 42.1058 -72.0092 248° West 142 163 6,100  Level Boston Center
01:15PM 42.0808 -72.0542 233° Southwest 145 167 6,100  Level Boston Center
01:16PM 42.0539 -72.0850 220° Southwest 144 166 6,100  Level Boston Center
01:17PM 42.0228 -72.1186 219° Southwest 144 166 6,100  Level Boston Center
01:18PM 41.9958 -72.1525 223° Southwest 142 163 6,100  Level Boston Center
01:19PM 41.9583 -72.1944 220° Southwest 143 165 6,100  Level Boston Center
01:20PM 41.9250 -72.2308 219° Southwest 144 166 6,100 -60 Level Boston Center
01:21PM 41.8958 -72.2617 218° Southwest 149 171 6,000  Descending Boston Center
01:22PM 41.8708 -72.2950 225° Southwest 139 160 6,100  Climbing Boston Center
01:23PM 41.8356 -72.3342 220° Southwest 138 159 6,100  Level Boston Center
01:24PM 41.8022 -72.3706 219° Southwest 141 162 6,100  Level Boston Center
01:25PM 41.7731 -72.4011 218° Southwest 142 163 6,100  Level Boston Center
01:26PM 41.7439 -72.4317 218° Southwest 143 165 6,100  Level Boston Center
01:27PM 41.7128 -72.4678 221° Southwest 141 162 6,100  Level Boston Center
01:28PM 41.6814 -72.5039 221° Southwest 143 165 6,100  Level Boston Center
01:29PM 41.6500 -72.5372 218° Southwest 139 160 6,100  Level Boston Center
01:31PM 41.5833 -72.5667 198° South 148 170 6,100  Level New York TRACON
01:33PM 41.5167 -72.6000 201° Southwest 150 173 6,100  Level New York TRACON
01:34PM 41.4667 -72.6167 194° South 147 169 6,100  Level New York TRACON
01:35PM 41.4333 -72.6333 201° Southwest 145 167 6,100  Level New York TRACON
01:36PM 41.4000 -72.6500 201° Southwest 144 166 6,100  Level New York TRACON
01:37PM 41.3500 -72.6667 194° South 144 166 6,100  Level New York TRACON
01:38PM 41.3167 -72.6833 201° Southwest 145 167 6,100  Level New York TRACON
01:39PM 41.3000 -72.7333 246° West 149 171 6,100  Level New York TRACON
01:40PM 41.2833 -72.7833 246° West 144 166 6,100  Level New York TRACON
01:41PM 41.2667 -72.8333 246° West 141 162 6,100  Level New York TRACON
01:42PM 41.2500 -72.8667 236° Southwest 142 163 6,100  Level New York TRACON
01:43PM 41.2333 -72.9167 246° West 144 166 6,100  Level New York TRACON
01:44PM 41.2167 -72.9667 246° West 138 159 6,100  Level New York TRACON
01:45PM 41.2000 -73.0167 246° West 138 159 6,100  Level New York TRACON
01:46PM 41.1833 -73.0667 246° West 143 165 6,100  Level New York TRACON
01:47PM 41.1667 -73.1000 236° Southwest 142 163 6,100  Level New York TRACON
01:48PM 41.1667 -73.1667 270° West 148 170 6,100 -240 Level New York TRACON
01:49PM 41.1667 -73.2167 270° West 160 184 5,700 -480 Descending New York TRACON
01:50PM 41.1667 -73.2833 270° West 164 189 5,200 -540 Descending New York TRACON
01:51PM 41.1833 -73.3333 294° West 162 186 4,700 -540 Descending New York TRACON
01:52PM 41.1833 -73.4000 270° West 157 181 4,200 -540 Descending New York TRACON
01:53PM 41.1833 -73.4500 270° West 157 181 3,700 -540 Descending New York TRACON
01:54PM 41.1833 -73.5167 270° West 162 186 3,200 -360 Descending New York TRACON
01:55PM 41.2000 -73.5667 294° West 147 169 3,100 -60 Descending New York TRACON
01:56PM 41.2000 -73.6167 270° West 139 160 3,100 -300 Level New York TRACON
01:57PM 41.2000 -73.6667 270° West 151 174 2,600 -540 Descending New York TRACON
01:58PM 41.2000 -73.7333 270° West 156 180 2,100 -300 Descending New York TRACON
01:59PM 41.2000 -73.7667 270° West 139 160 2,100  Level New York TRACON
02:00PM 41.1667 -73.7833 201° Southwest 130 150 2,100 -240 Level New York TRACON
02:01PM 41.1333 -73.7500 143° Southeast 118 136 1,700 -480 Descending New York TRACON
02:02PM 41.1167 -73.7333 143° Southeast 95 109 1,300 -480 Descending New York TRACON
02:03PM 41.0833 -73.7167 159° South 89 102 800 -480 Descending New York TRACON
02:05PM 41.0667 -73.7000 169° South  Level FlightAware Approximate
02:12PM 41.0669 -73.7076 169° South  Level Estimated